sensor_id;sensor_type;location;lat;lon;timestamp;P1;durP1;ratioP1;P2;durP2;ratioP2
73919;SDS011;62266;53.348;-1.496;2023-06-01T00:00:36;13.40;;;6.80;;
73919;SDS011;62266;53.348;-1.496;2023-06-01T00:03:22;11.32;;;6.82;;
73919;SDS011;62266;53.348;-1.496;2023-06-01T00:06:07;15.90;;;6.20;;
73919;SDS011;62266;53.348;-1.496;2023-06-01T00:08:51;9.48;;;6.22;;
73919;SDS011;62266;53.348;-1.496;2023-06-01T00:11:35;11.20;;;6.13;;
73919;SDS011;62266;53.348;-1.496;2023-06-01T00:14:21;9.93;;;5.20;;
73919;SDS011;62266;53.348;-1.496;2023-06-01T00:17:05;12.38;;;5.45;;
73919;SDS011;62266;53.348;-1.496;2023-06-01T00:19:51;12.20;;;6.22;;
73919;SDS011;62266;53.348;-1.496;2023-06-01T00:22:36;11.90;;;5.93;;
73919;SDS011;62266;53.348;-1.496;2023-06-01T00:25:23;11.25;;;5.63;;
73919;SDS011;62266;53.348;-1.496;2023-06-01T00:28:07;10.50;;;5.40;;
73919;SDS011;62266;53.348;-1.496;2023-06-01T00:30:51;9.10;;;5.82;;
73919;SDS011;62266;53.348;-1.496;2023-06-01T00:33:36;17.20;;;6.78;;
73919;SDS011;62266;53.348;-1.496;2023-06-01T00:36:23;9.57;;;5.80;;
73919;SDS011;62266;53.348;-1.496;2023-06-01T00:39:08;8.88;;;5.15;;
73919;SDS011;62266;53.348;-1.496;2023-06-01T00:41:52;9.87;;;5.40;;
73919;SDS011;62266;53.348;-1.496;2023-06-01T00:44:36;11.10;;;5.28;;
73919;SDS011;62266;53.348;-1.496;2023-06-01T00:47:20;9.98;;;5.57;;
73919;SDS011;62266;53.348;-1.496;2023-06-01T00:50:04;10.18;;;5.47;;
73919;SDS011;62266;53.348;-1.496;2023-06-01T00:52:49;9.18;;;5.32;;
73919;SDS011;62266;53.348;-1.496;2023-06-01T00:55:34;9.13;;;5.13;;
73919;SDS011;62266;53.348;-1.496;2023-06-01T00:58:18;8.30;;;5.68;;
73919;SDS011;62266;53.348;-1.496;2023-06-01T01:01:02;9.40;;;5.20;;
73919;SDS011;62266;53.348;-1.496;2023-06-01T01:03:46;13.75;;;5.93;;
73919;SDS011;62266;53.348;-1.496;2023-06-01T01:09:41;9.63;;;5.23;;
73919;SDS011;62266;53.348;-1.496;2023-06-01T01:12:36;8.70;;;4.75;;
73919;SDS011;62266;53.348;-1.496;2023-06-01T01:15:29;9.73;;;5.63;;
73919;SDS011;62266;53.348;-1.496;2023-06-01T01:18:23;9.50;;;5.55;;
73919;SDS011;62266;53.348;-1.496;2023-06-01T01:21:21;10.93;;;5.65;;
73919;SDS011;62266;53.348;-1.496;2023-06-01T01:27:38;10.40;;;6.18;;
73919;SDS011;62266;53.348;-1.496;2023-06-01T01:30:27;15.00;;;6.43;;
73919;SDS011;62266;53.348;-1.496;2023-06-01T01:33:13;12.63;;;6.28;;
73919;SDS011;62266;53.348;-1.496;2023-06-01T01:35:58;12.07;;;6.45;;
73919;SDS011;62266;53.348;-1.496;2023-06-01T01:38:44;11.40;;;6.00;;
73919;SDS011;62266;53.348;-1.496;2023-06-01T01:41:28;10.88;;;5.97;;
73919;SDS011;62266;53.348;-1.496;2023-06-01T01:44:12;11.60;;;6.40;;
73919;SDS011;62266;53.348;-1.496;2023-06-01T01:49:53;9.98;;;5.72;;
73919;SDS011;62266;53.348;-1.496;2023-06-01T01:52:41;9.10;;;5.40;;
73919;SDS011;62266;53.348;-1.496;2023-06-01T01:55:26;10.95;;;6.32;;
73919;SDS011;62266;53.348;-1.496;2023-06-01T01:58:10;14.20;;;6.20;;
73919;SDS011;62266;53.348;-1.496;2023-06-01T02:00:55;12.25;;;6.15;;
73919;SDS011;62266;53.348;-1.496;2023-06-01T02:03:39;13.68;;;6.32;;
73919;SDS011;62266;53.348;-1.496;2023-06-01T02:06:23;13.83;;;6.63;;
73919;SDS011;62266;53.348;-1.496;2023-06-01T02:09:07;12.23;;;6.15;;
73919;SDS011;62266;53.348;-1.496;2023-06-01T02:11:52;11.13;;;6.20;;
73919;SDS011;62266;53.348;-1.496;2023-06-01T02:14:36;13.38;;;7.10;;
73919;SDS011;62266;53.348;-1.496;2023-06-01T02:17:20;13.75;;;7.07;;
73919;SDS011;62266;53.348;-1.496;2023-06-01T02:20:05;12.60;;;6.73;;
73919;SDS011;62266;53.348;-1.496;2023-06-01T02:22:49;12.40;;;6.75;;
73919;SDS011;62266;53.348;-1.496;2023-06-01T02:25:33;13.60;;;5.90;;
73919;SDS011;62266;53.348;-1.496;2023-06-01T02:28:18;14.18;;;7.28;;
73919;SDS011;62266;53.348;-1.496;2023-06-01T02:31:02;12.35;;;6.25;;
73919;SDS011;62266;53.348;-1.496;2023-06-01T02:33:49;11.67;;;5.87;;
73919;SDS011;62266;53.348;-1.496;2023-06-01T02:36:34;11.60;;;6.25;;
73919;SDS011;62266;53.348;-1.496;2023-06-01T02:39:18;11.38;;;6.30;;
73919;SDS011;62266;53.348;-1.496;2023-06-01T02:42:02;10.65;;;6.30;;
73919;SDS011;62266;53.348;-1.496;2023-06-01T02:44:47;11.88;;;5.70;;
73919;SDS011;62266;53.348;-1.496;2023-06-01T02:47:30;9.17;;;5.50;;
73919;SDS011;62266;53.348;-1.496;2023-06-01T02:50:14;10.48;;;5.63;;
73919;SDS011;62266;53.348;-1.496;2023-06-01T02:52:58;11.45;;;6.30;;
73919;SDS011;62266;53.348;-1.496;2023-06-01T02:55:45;12.43;;;6.32;;
73919;SDS011;62266;53.348;-1.496;2023-06-01T02:58:30;14.02;;;6.00;;
73919;SDS011;62266;53.348;-1.496;2023-06-01T03:01:16;12.63;;;6.90;;
73919;SDS011;62266;53.348;-1.496;2023-06-01T03:04:03;14.45;;;6.65;;
73919;SDS011;62266;53.348;-1.496;2023-06-01T03:06:48;13.13;;;6.78;;
73919;SDS011;62266;53.348;-1.496;2023-06-01T03:09:32;13.45;;;6.88;;
73919;SDS011;62266;53.348;-1.496;2023-06-01T03:12:16;11.52;;;6.65;;
73919;SDS011;62266;53.348;-1.496;2023-06-01T03:15:01;12.70;;;6.50;;
73919;SDS011;62266;53.348;-1.496;2023-06-01T03:17:48;14.77;;;6.63;;
73919;SDS011;62266;53.348;-1.496;2023-06-01T03:20:32;14.98;;;6.32;;
73919;SDS011;62266;53.348;-1.496;2023-06-01T03:23:16;14.55;;;7.00;;
73919;SDS011;62266;53.348;-1.496;2023-06-01T03:26:00;13.02;;;6.40;;
73919;SDS011;62266;53.348;-1.496;2023-06-01T03:28:47;12.13;;;6.53;;
73919;SDS011;62266;53.348;-1.496;2023-06-01T03:31:31;13.48;;;7.30;;
73919;SDS011;62266;53.348;-1.496;2023-06-01T03:34:18;11.40;;;6.88;;
73919;SDS011;62266;53.348;-1.496;2023-06-01T03:37:03;13.88;;;6.75;;
73919;SDS011;62266;53.348;-1.496;2023-06-01T03:39:48;10.05;;;5.70;;
73919;SDS011;62266;53.348;-1.496;2023-06-01T03:42:32;11.40;;;6.50;;
73919;SDS011;62266;53.348;-1.496;2023-06-01T03:45:16;11.23;;;5.90;;
73919;SDS011;62266;53.348;-1.496;2023-06-01T03:48:00;14.05;;;6.22;;
73919;SDS011;62266;53.348;-1.496;2023-06-01T03:50:44;11.45;;;5.60;;
73919;SDS011;62266;53.348;-1.496;2023-06-01T03:53:29;11.90;;;5.72;;
73919;SDS011;62266;53.348;-1.496;2023-06-01T03:56:15;13.37;;;5.87;;
73919;SDS011;62266;53.348;-1.496;2023-06-01T03:58:59;14.40;;;5.72;;
73919;SDS011;62266;53.348;-1.496;2023-06-01T04:01:44;13.80;;;5.88;;
73919;SDS011;62266;53.348;-1.496;2023-06-01T04:04:32;11.73;;;6.15;;
73919;SDS011;62266;53.348;-1.496;2023-06-01T04:07:20;9.88;;;5.45;;
73919;SDS011;62266;53.348;-1.496;2023-06-01T04:10:05;13.07;;;6.47;;
73919;SDS011;62266;53.348;-1.496;2023-06-01T04:12:50;13.85;;;6.68;;
73919;SDS011;62266;53.348;-1.496;2023-06-01T04:15:34;11.60;;;6.53;;
73919;SDS011;62266;53.348;-1.496;2023-06-01T04:18:18;15.27;;;6.82;;
73919;SDS011;62266;53.348;-1.496;2023-06-01T04:21:02;12.60;;;7.18;;
73919;SDS011;62266;53.348;-1.496;2023-06-01T04:23:47;14.27;;;7.17;;
73919;SDS011;62266;53.348;-1.496;2023-06-01T04:26:32;12.48;;;6.82;;
73919;SDS011;62266;53.348;-1.496;2023-06-01T04:29:16;14.25;;;7.00;;
73919;SDS011;62266;53.348;-1.496;2023-06-01T04:32:03;12.95;;;7.78;;
73919;SDS011;62266;53.348;-1.496;2023-06-01T04:34:48;16.08;;;8.27;;
73919;SDS011;62266;53.348;-1.496;2023-06-01T04:37:35;14.20;;;7.93;;
73919;SDS011;62266;53.348;-1.496;2023-06-01T04:40:22;14.80;;;7.65;;
73919;SDS011;62266;53.348;-1.496;2023-06-01T04:43:07;13.13;;;7.32;;
73919;SDS011;62266;53.348;-1.496;2023-06-01T04:45:51;12.52;;;6.95;;
73919;SDS011;62266;53.348;-1.496;2023-06-01T04:48:35;11.93;;;6.40;;
73919;SDS011;62266;53.348;-1.496;2023-06-01T04:51:20;10.67;;;6.30;;
73919;SDS011;62266;53.348;-1.496;2023-06-01T04:54:05;12.95;;;6.47;;
73919;SDS011;62266;53.348;-1.496;2023-06-01T04:56:51;11.50;;;5.47;;
73919;SDS011;62266;53.348;-1.496;2023-06-01T04:59:35;11.80;;;6.13;;
73919;SDS011;62266;53.348;-1.496;2023-06-01T05:02:20;11.23;;;5.90;;
73919;SDS011;62266;53.348;-1.496;2023-06-01T05:05:07;10.87;;;6.00;;
73919;SDS011;62266;53.348;-1.496;2023-06-01T05:07:52;12.73;;;7.38;;
73919;SDS011;62266;53.348;-1.496;2023-06-01T05:10:37;17.27;;;6.82;;
73919;SDS011;62266;53.348;-1.496;2023-06-01T05:13:22;11.60;;;6.28;;
73919;SDS011;62266;53.348;-1.496;2023-06-01T05:16:06;13.98;;;6.85;;
73919;SDS011;62266;53.348;-1.496;2023-06-01T05:18:51;15.40;;;6.90;;
73919;SDS011;62266;53.348;-1.496;2023-06-01T05:21:36;12.98;;;6.80;;
73919;SDS011;62266;53.348;-1.496;2023-06-01T05:24:20;13.57;;;7.25;;
73919;SDS011;62266;53.348;-1.496;2023-06-01T05:27:05;14.13;;;6.65;;
73919;SDS011;62266;53.348;-1.496;2023-06-01T05:29:50;14.95;;;7.43;;
73919;SDS011;62266;53.348;-1.496;2023-06-01T05:32:34;15.53;;;6.67;;
73919;SDS011;62266;53.348;-1.496;2023-06-01T05:35:18;12.98;;;6.55;;
73919;SDS011;62266;53.348;-1.496;2023-06-01T05:38:06;13.48;;;7.20;;
73919;SDS011;62266;53.348;-1.496;2023-06-01T05:40:51;12.07;;;6.60;;
73919;SDS011;62266;53.348;-1.496;2023-06-01T05:43:36;15.75;;;7.43;;
73919;SDS011;62266;53.348;-1.496;2023-06-01T05:46:20;14.20;;;6.73;;
73919;SDS011;62266;53.348;-1.496;2023-06-01T05:49:04;15.40;;;7.53;;
73919;SDS011;62266;53.348;-1.496;2023-06-01T05:51:48;13.32;;;7.43;;
73919;SDS011;62266;53.348;-1.496;2023-06-01T05:54:32;13.77;;;7.05;;
73919;SDS011;62266;53.348;-1.496;2023-06-01T05:57:17;14.00;;;7.35;;
73919;SDS011;62266;53.348;-1.496;2023-06-01T06:00:04;12.27;;;6.90;;
73919;SDS011;62266;53.348;-1.496;2023-06-01T06:02:53;13.77;;;6.13;;
73919;SDS011;62266;53.348;-1.496;2023-06-01T06:05:38;22.10;;;6.30;;
73919;SDS011;62266;53.348;-1.496;2023-06-01T06:08:22;9.95;;;5.93;;
73919;SDS011;62266;53.348;-1.496;2023-06-01T06:11:11;10.60;;;6.03;;
73919;SDS011;62266;53.348;-1.496;2023-06-01T06:13:56;10.73;;;5.60;;
73919;SDS011;62266;53.348;-1.496;2023-06-01T06:16:41;9.70;;;5.30;;
73919;SDS011;62266;53.348;-1.496;2023-06-01T06:19:26;11.80;;;5.43;;
73919;SDS011;62266;53.348;-1.496;2023-06-01T06:22:10;11.68;;;5.97;;
73919;SDS011;62266;53.348;-1.496;2023-06-01T06:24:55;9.80;;;5.57;;
73919;SDS011;62266;53.348;-1.496;2023-06-01T06:30:24;9.75;;;5.85;;
73919;SDS011;62266;53.348;-1.496;2023-06-01T06:33:09;11.57;;;6.35;;
73919;SDS011;62266;53.348;-1.496;2023-06-01T06:49:18;11.40;;;6.15;;
73919;SDS011;62266;53.348;-1.496;2023-06-01T06:52:03;11.20;;;6.50;;
73919;SDS011;62266;53.348;-1.496;2023-06-01T06:54:47;10.93;;;6.53;;
73919;SDS011;62266;53.348;-1.496;2023-06-01T06:57:31;13.43;;;6.40;;
73919;SDS011;62266;53.348;-1.496;2023-06-01T07:00:17;9.65;;;5.80;;
73919;SDS011;62266;53.348;-1.496;2023-06-01T07:03:04;9.68;;;5.40;;
73919;SDS011;62266;53.348;-1.496;2023-06-01T07:05:48;8.95;;;5.70;;
73919;SDS011;62266;53.348;-1.496;2023-06-01T07:08:33;9.87;;;5.43;;
73919;SDS011;62266;53.348;-1.496;2023-06-01T07:11:18;8.43;;;5.47;;
73919;SDS011;62266;53.348;-1.496;2023-06-01T07:14:02;10.15;;;5.72;;
73919;SDS011;62266;53.348;-1.496;2023-06-01T07:16:46;8.43;;;5.00;;
73919;SDS011;62266;53.348;-1.496;2023-06-01T07:19:31;7.72;;;5.22;;
73919;SDS011;62266;53.348;-1.496;2023-06-01T07:22:25;10.63;;;5.57;;
73919;SDS011;62266;53.348;-1.496;2023-06-01T07:25:10;12.05;;;5.43;;
73919;SDS011;62266;53.348;-1.496;2023-06-01T07:27:56;11.98;;;5.88;;
73919;SDS011;62266;53.348;-1.496;2023-06-01T07:30:41;9.15;;;5.40;;
73919;SDS011;62266;53.348;-1.496;2023-06-01T07:33:25;9.20;;;5.10;;
73919;SDS011;62266;53.348;-1.496;2023-06-01T07:36:20;13.77;;;6.43;;
73919;SDS011;62266;53.348;-1.496;2023-06-01T07:39:07;9.77;;;6.10;;
73919;SDS011;62266;53.348;-1.496;2023-06-01T07:41:53;8.85;;;5.30;;
73919;SDS011;62266;53.348;-1.496;2023-06-01T07:44:37;8.50;;;5.10;;
73919;SDS011;62266;53.348;-1.496;2023-06-01T07:47:22;9.30;;;4.90;;
73919;SDS011;62266;53.348;-1.496;2023-06-01T07:50:34;10.50;;;5.07;;
73919;SDS011;62266;53.348;-1.496;2023-06-01T07:53:18;10.55;;;5.38;;
73919;SDS011;62266;53.348;-1.496;2023-06-01T07:56:05;9.77;;;6.00;;
73919;SDS011;62266;53.348;-1.496;2023-06-01T07:58:52;10.75;;;5.90;;
73919;SDS011;62266;53.348;-1.496;2023-06-01T08:04:18;8.90;;;5.07;;
73919;SDS011;62266;53.348;-1.496;2023-06-01T08:07:04;12.82;;;5.05;;
73919;SDS011;62266;53.348;-1.496;2023-06-01T08:09:51;11.15;;;4.72;;
73919;SDS011;62266;53.348;-1.496;2023-06-01T08:12:36;6.50;;;4.35;;
73919;SDS011;62266;53.348;-1.496;2023-06-01T08:15:26;6.05;;;3.83;;
73919;SDS011;62266;53.348;-1.496;2023-06-01T08:18:18;6.53;;;4.07;;
73919;SDS011;62266;53.348;-1.496;2023-06-01T08:21:06;6.40;;;3.40;;
73919;SDS011;62266;53.348;-1.496;2023-06-01T08:23:54;6.00;;;3.45;;
73919;SDS011;62266;53.348;-1.496;2023-06-01T08:26:39;7.72;;;4.07;;
73919;SDS011;62266;53.348;-1.496;2023-06-01T08:29:23;7.10;;;3.85;;
73919;SDS011;62266;53.348;-1.496;2023-06-01T08:32:16;7.40;;;3.70;;
73919;SDS011;62266;53.348;-1.496;2023-06-01T08:35:00;6.32;;;4.07;;
73919;SDS011;62266;53.348;-1.496;2023-06-01T08:37:49;8.02;;;4.15;;
73919;SDS011;62266;53.348;-1.496;2023-06-01T08:40:33;8.75;;;3.88;;
73919;SDS011;62266;53.348;-1.496;2023-06-01T08:43:21;4.72;;;3.65;;
73919;SDS011;62266;53.348;-1.496;2023-06-01T08:46:06;6.43;;;4.00;;
73919;SDS011;62266;53.348;-1.496;2023-06-01T08:48:52;7.07;;;4.20;;
73919;SDS011;62266;53.348;-1.496;2023-06-01T08:51:37;6.18;;;3.92;;
73919;SDS011;62266;53.348;-1.496;2023-06-01T08:54:26;6.22;;;4.15;;
73919;SDS011;62266;53.348;-1.496;2023-06-01T08:59:58;9.07;;;4.57;;
73919;SDS011;62266;53.348;-1.496;2023-06-01T09:02:43;8.05;;;4.20;;
73919;SDS011;62266;53.348;-1.496;2023-06-01T09:05:38;7.63;;;5.35;;
73919;SDS011;62266;53.348;-1.496;2023-06-01T09:08:29;8.60;;;4.65;;
73919;SDS011;62266;53.348;-1.496;2023-06-01T09:11:15;7.07;;;4.47;;
73919;SDS011;62266;53.348;-1.496;2023-06-01T09:14:18;8.37;;;4.93;;
73919;SDS011;62266;53.348;-1.496;2023-06-01T09:17:07;8.57;;;5.45;;
73919;SDS011;62266;53.348;-1.496;2023-06-01T09:20:06;11.05;;;5.55;;
73919;SDS011;62266;53.348;-1.496;2023-06-01T09:23:04;9.80;;;4.57;;
73919;SDS011;62266;53.348;-1.496;2023-06-01T09:25:52;10.90;;;4.93;;
73919;SDS011;62266;53.348;-1.496;2023-06-01T09:28:53;9.87;;;4.60;;
73919;SDS011;62266;53.348;-1.496;2023-06-01T09:34:24;7.60;;;3.83;;
73919;SDS011;62266;53.348;-1.496;2023-06-01T09:37:09;12.32;;;4.80;;
73919;SDS011;62266;53.348;-1.496;2023-06-01T09:39:56;7.32;;;4.95;;
73919;SDS011;62266;53.348;-1.496;2023-06-01T09:42:40;9.43;;;4.73;;
73919;SDS011;62266;53.348;-1.496;2023-06-01T09:45:24;8.98;;;4.43;;
73919;SDS011;62266;53.348;-1.496;2023-06-01T09:48:18;6.20;;;4.00;;
73919;SDS011;62266;53.348;-1.496;2023-06-01T09:51:02;6.30;;;3.55;;
73919;SDS011;62266;53.348;-1.496;2023-06-01T09:53:47;6.65;;;3.90;;
73919;SDS011;62266;53.348;-1.496;2023-06-01T09:56:43;6.53;;;3.90;;
73919;SDS011;62266;53.348;-1.496;2023-06-01T10:00:04;5.72;;;3.38;;
73919;SDS011;62266;53.348;-1.496;2023-06-01T10:02:41;4.88;;;2.97;;
73919;SDS011;62266;53.348;-1.496;2023-06-01T10:05:25;4.35;;;3.03;;
73919;SDS011;62266;53.348;-1.496;2023-06-01T10:08:11;6.05;;;3.13;;
73919;SDS011;62266;53.348;-1.496;2023-06-01T10:10:56;4.60;;;3.00;;
73919;SDS011;62266;53.348;-1.496;2023-06-01T10:13:40;4.55;;;2.90;;
73919;SDS011;62266;53.348;-1.496;2023-06-01T10:16:25;5.47;;;2.50;;
73919;SDS011;62266;53.348;-1.496;2023-06-01T10:19:10;4.07;;;3.00;;
73919;SDS011;62266;53.348;-1.496;2023-06-01T10:21:56;4.35;;;2.88;;
73919;SDS011;62266;53.348;-1.496;2023-06-01T10:24:41;3.77;;;2.37;;
73919;SDS011;62266;53.348;-1.496;2023-06-01T10:27:33;6.78;;;2.35;;
73919;SDS011;62266;53.348;-1.496;2023-06-01T10:30:20;3.95;;;2.22;;
73919;SDS011;62266;53.348;-1.496;2023-06-01T10:33:05;3.25;;;1.77;;
73919;SDS011;62266;53.348;-1.496;2023-06-01T10:35:50;2.95;;;2.17;;
73919;SDS011;62266;53.348;-1.496;2023-06-01T10:38:35;2.40;;;1.90;;
73919;SDS011;62266;53.348;-1.496;2023-06-01T10:41:29;3.70;;;1.92;;
73919;SDS011;62266;53.348;-1.496;2023-06-01T10:50:07;2.95;;;1.77;;
73919;SDS011;62266;53.348;-1.496;2023-06-01T10:52:53;5.53;;;2.07;;
73919;SDS011;62266;53.348;-1.496;2023-06-01T10:55:37;5.03;;;2.00;;
73919;SDS011;62266;53.348;-1.496;2023-06-01T10:58:22;5.38;;;2.50;;
73919;SDS011;62266;53.348;-1.496;2023-06-01T11:01:08;3.88;;;2.33;;
73919;SDS011;62266;53.348;-1.496;2023-06-01T11:03:54;3.80;;;2.38;;
73919;SDS011;62266;53.348;-1.496;2023-06-01T11:06:42;6.17;;;2.60;;
73919;SDS011;62266;53.348;-1.496;2023-06-01T11:09:27;4.00;;;2.30;;
73919;SDS011;62266;53.348;-1.496;2023-06-01T11:12:28;5.70;;;2.40;;
73919;SDS011;62266;53.348;-1.496;2023-06-01T11:19:04;3.28;;;2.10;;
73919;SDS011;62266;53.348;-1.496;2023-06-01T11:21:57;3.57;;;2.07;;
73919;SDS011;62266;53.348;-1.496;2023-06-01T11:24:45;3.20;;;2.00;;
73919;SDS011;62266;53.348;-1.496;2023-06-01T11:27:33;5.35;;;2.50;;
73919;SDS011;62266;53.348;-1.496;2023-06-01T11:30:18;5.40;;;2.28;;
73919;SDS011;62266;53.348;-1.496;2023-06-01T11:33:03;5.18;;;2.63;;
73919;SDS011;62266;53.348;-1.496;2023-06-01T11:35:56;4.27;;;2.97;;
73919;SDS011;62266;53.348;-1.496;2023-06-01T11:38:42;4.53;;;2.95;;
73919;SDS011;62266;53.348;-1.496;2023-06-01T11:41:29;5.15;;;2.97;;
73919;SDS011;62266;53.348;-1.496;2023-06-01T11:44:14;4.32;;;2.47;;
73919;SDS011;62266;53.348;-1.496;2023-06-01T11:46:58;5.07;;;2.40;;
73919;SDS011;62266;53.348;-1.496;2023-06-01T11:49:48;4.17;;;2.50;;
73919;SDS011;62266;53.348;-1.496;2023-06-01T11:52:35;2.42;;;1.85;;
73919;SDS011;62266;53.348;-1.496;2023-06-01T11:55:19;2.13;;;1.92;;
73919;SDS011;62266;53.348;-1.496;2023-06-01T11:58:04;2.50;;;1.90;;
73919;SDS011;62266;53.348;-1.496;2023-06-01T12:00:50;3.75;;;1.92;;
73919;SDS011;62266;53.348;-1.496;2023-06-01T12:03:44;2.53;;;1.80;;
73919;SDS011;62266;53.348;-1.496;2023-06-01T12:06:29;3.45;;;1.90;;
73919;SDS011;62266;53.348;-1.496;2023-06-01T12:09:15;2.85;;;1.83;;
73919;SDS011;62266;53.348;-1.496;2023-06-01T12:12:00;4.50;;;2.28;;
73919;SDS011;62266;53.348;-1.496;2023-06-01T12:14:44;4.55;;;2.50;;
73919;SDS011;62266;53.348;-1.496;2023-06-01T12:17:48;7.00;;;2.70;;
73919;SDS011;62266;53.348;-1.496;2023-06-01T12:23:25;5.72;;;3.17;;
73919;SDS011;62266;53.348;-1.496;2023-06-01T12:26:10;5.97;;;3.33;;
73919;SDS011;62266;53.348;-1.496;2023-06-01T12:28:55;7.07;;;3.20;;
73919;SDS011;62266;53.348;-1.496;2023-06-01T12:31:51;4.70;;;3.00;;
73919;SDS011;62266;53.348;-1.496;2023-06-01T12:35:04;4.65;;;3.10;;
73919;SDS011;62266;53.348;-1.496;2023-06-01T12:38:06;6.93;;;3.90;;
73919;SDS011;62266;53.348;-1.496;2023-06-01T12:41:06;6.43;;;3.95;;
73919;SDS011;62266;53.348;-1.496;2023-06-01T12:43:51;4.55;;;3.35;;
73919;SDS011;62266;53.348;-1.496;2023-06-01T12:46:39;3.57;;;2.90;;
73919;SDS011;62266;53.348;-1.496;2023-06-01T12:49:23;4.35;;;2.72;;
73919;SDS011;62266;53.348;-1.496;2023-06-01T12:52:07;4.00;;;2.70;;
73919;SDS011;62266;53.348;-1.496;2023-06-01T12:55:00;3.53;;;2.80;;
73919;SDS011;62266;53.348;-1.496;2023-06-01T12:57:54;3.97;;;2.58;;
73919;SDS011;62266;53.348;-1.496;2023-06-01T13:00:46;4.90;;;2.70;;
73919;SDS011;62266;53.348;-1.496;2023-06-01T13:08:55;4.70;;;3.20;;
73919;SDS011;62266;53.348;-1.496;2023-06-01T13:11:40;5.13;;;3.20;;
73919;SDS011;62266;53.348;-1.496;2023-06-01T13:14:25;5.07;;;2.83;;
73919;SDS011;62266;53.348;-1.496;2023-06-01T13:17:13;6.22;;;3.20;;
73919;SDS011;62266;53.348;-1.496;2023-06-01T13:19:58;4.68;;;3.15;;
73919;SDS011;62266;53.348;-1.496;2023-06-01T13:22:48;4.15;;;3.15;;
73919;SDS011;62266;53.348;-1.496;2023-06-01T13:25:34;5.35;;;3.05;;
73919;SDS011;62266;53.348;-1.496;2023-06-01T13:28:22;5.70;;;2.90;;
73919;SDS011;62266;53.348;-1.496;2023-06-01T13:31:13;4.18;;;3.15;;
73919;SDS011;62266;53.348;-1.496;2023-06-01T13:33:58;4.22;;;3.38;;
73919;SDS011;62266;53.348;-1.496;2023-06-01T13:36:45;4.35;;;3.10;;
73919;SDS011;62266;53.348;-1.496;2023-06-01T13:39:40;3.42;;;3.00;;
73919;SDS011;62266;53.348;-1.496;2023-06-01T13:42:28;3.43;;;2.47;;
73919;SDS011;62266;53.348;-1.496;2023-06-01T13:45:16;2.97;;;2.70;;
73919;SDS011;62266;53.348;-1.496;2023-06-01T13:48:03;3.00;;;2.47;;
73919;SDS011;62266;53.348;-1.496;2023-06-01T13:50:47;5.25;;;2.22;;
73919;SDS011;62266;53.348;-1.496;2023-06-01T13:53:32;4.32;;;2.90;;
73919;SDS011;62266;53.348;-1.496;2023-06-01T13:56:19;4.33;;;2.60;;
73919;SDS011;62266;53.348;-1.496;2023-06-01T13:59:06;3.47;;;2.47;;
73919;SDS011;62266;53.348;-1.496;2023-06-01T14:01:56;4.47;;;2.40;;
73919;SDS011;62266;53.348;-1.496;2023-06-01T14:04:40;5.63;;;2.60;;
73919;SDS011;62266;53.348;-1.496;2023-06-01T14:07:25;3.95;;;2.80;;
73919;SDS011;62266;53.348;-1.496;2023-06-01T14:10:10;3.97;;;2.87;;
73919;SDS011;62266;53.348;-1.496;2023-06-01T14:12:56;3.70;;;2.00;;
73919;SDS011;62266;53.348;-1.496;2023-06-01T14:15:44;2.80;;;1.80;;
73919;SDS011;62266;53.348;-1.496;2023-06-01T14:18:28;3.28;;;2.38;;
73919;SDS011;62266;53.348;-1.496;2023-06-01T14:21:14;2.65;;;2.10;;
73919;SDS011;62266;53.348;-1.496;2023-06-01T14:23:59;3.07;;;2.00;;
73919;SDS011;62266;53.348;-1.496;2023-06-01T14:26:44;4.38;;;2.22;;
73919;SDS011;62266;53.348;-1.496;2023-06-01T14:29:29;3.05;;;2.30;;
73919;SDS011;62266;53.348;-1.496;2023-06-01T14:32:13;5.70;;;2.50;;
73919;SDS011;62266;53.348;-1.496;2023-06-01T14:35:10;4.07;;;2.30;;
73919;SDS011;62266;53.348;-1.496;2023-06-01T14:37:59;5.57;;;2.30;;
73919;SDS011;62266;53.348;-1.496;2023-06-01T14:40:51;2.92;;;2.42;;
73919;SDS011;62266;53.348;-1.496;2023-06-01T14:43:36;3.45;;;2.28;;
73919;SDS011;62266;53.348;-1.496;2023-06-01T14:46:22;4.60;;;2.00;;
73919;SDS011;62266;53.348;-1.496;2023-06-01T14:49:14;2.60;;;2.00;;
73919;SDS011;62266;53.348;-1.496;2023-06-01T14:51:59;7.00;;;2.10;;
73919;SDS011;62266;53.348;-1.496;2023-06-01T14:54:43;3.72;;;1.52;;
73919;SDS011;62266;53.348;-1.496;2023-06-01T14:57:28;3.65;;;1.50;;
73919;SDS011;62266;53.348;-1.496;2023-06-01T15:00:15;3.75;;;1.20;;
73919;SDS011;62266;53.348;-1.496;2023-06-01T15:03:01;2.28;;;1.45;;
73919;SDS011;62266;53.348;-1.496;2023-06-01T15:05:46;3.83;;;1.70;;
73919;SDS011;62266;53.348;-1.496;2023-06-01T15:08:31;2.17;;;1.38;;
73919;SDS011;62266;53.348;-1.496;2023-06-01T15:11:19;5.75;;;2.10;;
73919;SDS011;62266;53.348;-1.496;2023-06-01T15:14:05;4.95;;;1.80;;
73919;SDS011;62266;53.348;-1.496;2023-06-01T15:16:54;2.78;;;1.67;;
73919;SDS011;62266;53.348;-1.496;2023-06-01T15:19:52;4.10;;;1.73;;
73919;SDS011;62266;53.348;-1.496;2023-06-01T15:22:37;3.92;;;1.55;;
73919;SDS011;62266;53.348;-1.496;2023-06-01T15:25:24;5.60;;;1.60;;
73919;SDS011;62266;53.348;-1.496;2023-06-01T15:28:08;2.83;;;1.48;;
73919;SDS011;62266;53.348;-1.496;2023-06-01T15:30:52;3.72;;;1.77;;
73919;SDS011;62266;53.348;-1.496;2023-06-01T15:33:37;6.33;;;1.70;;
73919;SDS011;62266;53.348;-1.496;2023-06-01T15:36:21;3.85;;;1.98;;
73919;SDS011;62266;53.348;-1.496;2023-06-01T15:39:06;2.97;;;1.42;;
73919;SDS011;62266;53.348;-1.496;2023-06-01T15:42:00;4.95;;;1.90;;
73919;SDS011;62266;53.348;-1.496;2023-06-01T15:44:45;5.75;;;2.00;;
73919;SDS011;62266;53.348;-1.496;2023-06-01T15:47:30;3.47;;;1.93;;
73919;SDS011;62266;53.348;-1.496;2023-06-01T15:50:15;4.43;;;2.30;;
73919;SDS011;62266;53.348;-1.496;2023-06-01T15:52:59;8.32;;;2.10;;
73919;SDS011;62266;53.348;-1.496;2023-06-01T15:55:48;5.47;;;2.53;;
73919;SDS011;62266;53.348;-1.496;2023-06-01T15:58:34;7.05;;;2.72;;
73919;SDS011;62266;53.348;-1.496;2023-06-01T16:01:21;6.37;;;2.07;;
73919;SDS011;62266;53.348;-1.496;2023-06-01T16:04:09;5.40;;;2.30;;
73919;SDS011;62266;53.348;-1.496;2023-06-01T16:07:02;4.85;;;2.10;;
73919;SDS011;62266;53.348;-1.496;2023-06-01T16:09:46;4.30;;;2.05;;
73919;SDS011;62266;53.348;-1.496;2023-06-01T16:12:33;5.57;;;2.10;;
73919;SDS011;62266;53.348;-1.496;2023-06-01T16:15:19;6.50;;;2.57;;
73919;SDS011;62266;53.348;-1.496;2023-06-01T16:18:03;5.63;;;2.17;;
73919;SDS011;62266;53.348;-1.496;2023-06-01T16:20:47;4.30;;;2.17;;
73919;SDS011;62266;53.348;-1.496;2023-06-01T16:23:34;5.30;;;2.25;;
73919;SDS011;62266;53.348;-1.496;2023-06-01T16:26:18;10.07;;;2.88;;
73919;SDS011;62266;53.348;-1.496;2023-06-01T16:29:06;7.10;;;2.47;;
73919;SDS011;62266;53.348;-1.496;2023-06-01T16:31:53;7.57;;;2.78;;
73919;SDS011;62266;53.348;-1.496;2023-06-01T16:34:40;7.40;;;2.40;;
73919;SDS011;62266;53.348;-1.496;2023-06-01T16:37:24;5.63;;;2.28;;
73919;SDS011;62266;53.348;-1.496;2023-06-01T16:40:08;5.45;;;2.45;;
73919;SDS011;62266;53.348;-1.496;2023-06-01T16:42:53;4.70;;;2.40;;
73919;SDS011;62266;53.348;-1.496;2023-06-01T16:45:44;4.53;;;2.35;;
73919;SDS011;62266;53.348;-1.496;2023-06-01T16:48:29;6.03;;;2.70;;
73919;SDS011;62266;53.348;-1.496;2023-06-01T16:51:14;5.15;;;2.35;;
73919;SDS011;62266;53.348;-1.496;2023-06-01T16:53:58;10.40;;;3.03;;
73919;SDS011;62266;53.348;-1.496;2023-06-01T16:56:42;6.63;;;2.93;;
73919;SDS011;62266;53.348;-1.496;2023-06-01T16:59:26;11.30;;;3.05;;
73919;SDS011;62266;53.348;-1.496;2023-06-01T17:02:11;7.22;;;3.17;;
73919;SDS011;62266;53.348;-1.496;2023-06-01T17:04:55;8.50;;;3.10;;
73919;SDS011;62266;53.348;-1.496;2023-06-01T17:07:39;6.32;;;2.90;;
73919;SDS011;62266;53.348;-1.496;2023-06-01T17:10:27;8.07;;;2.60;;
73919;SDS011;62266;53.348;-1.496;2023-06-01T17:13:11;8.27;;;3.17;;